sensor_id;sensor_type;location;lat;lon;timestamp;P1;durP1;ratioP1;P2;durP2;ratioP2
68315;SDS011;55508;54.368;18.406;2023-04-16T00:01:59;12.48;;;11.38;;
68315;SDS011;55508;54.368;18.406;2023-04-16T00:04:26;14.70;;;11.18;;
68315;SDS011;55508;54.368;18.406;2023-04-16T00:06:53;12.45;;;11.38;;
68315;SDS011;55508;54.368;18.406;2023-04-16T00:09:20;12.50;;;11.48;;
68315;SDS011;55508;54.368;18.406;2023-04-16T00:11:47;13.02;;;11.75;;
68315;SDS011;55508;54.368;18.406;2023-04-16T00:14:14;12.27;;;11.30;;
68315;SDS011;55508;54.368;18.406;2023-04-16T00:16:41;13.13;;;11.68;;
68315;SDS011;55508;54.368;18.406;2023-04-16T00:19:08;12.77;;;11.68;;
68315;SDS011;55508;54.368;18.406;2023-04-16T00:21:35;13.63;;;12.25;;
68315;SDS011;55508;54.368;18.406;2023-04-16T00:24:02;13.85;;;12.50;;
68315;SDS011;55508;54.368;18.406;2023-04-16T00:26:29;14.57;;;13.18;;
68315;SDS011;55508;54.368;18.406;2023-04-16T00:28:57;14.45;;;13.02;;
68315;SDS011;55508;54.368;18.406;2023-04-16T00:31:27;13.82;;;12.50;;
68315;SDS011;55508;54.368;18.406;2023-04-16T00:33:55;14.90;;;13.50;;
68315;SDS011;55508;54.368;18.406;2023-04-16T00:36:22;14.35;;;12.68;;
68315;SDS011;55508;54.368;18.406;2023-04-16T00:38:50;13.13;;;11.82;;
68315;SDS011;55508;54.368;18.406;2023-04-16T00:41:17;13.68;;;12.38;;
68315;SDS011;55508;54.368;18.406;2023-04-16T00:43:45;14.77;;;13.18;;
68315;SDS011;55508;54.368;18.406;2023-04-16T00:46:12;14.30;;;12.75;;
68315;SDS011;55508;54.368;18.406;2023-04-16T00:48:39;14.68;;;12.45;;
68315;SDS011;55508;54.368;18.406;2023-04-16T00:51:07;13.90;;;12.45;;
68315;SDS011;55508;54.368;18.406;2023-04-16T00:53:34;17.58;;;13.63;;
68315;SDS011;55508;54.368;18.406;2023-04-16T00:56:02;16.27;;;13.02;;
68315;SDS011;55508;54.368;18.406;2023-04-16T00:58:30;15.80;;;12.40;;
68315;SDS011;55508;54.368;18.406;2023-04-16T01:00:58;13.23;;;11.57;;
68315;SDS011;55508;54.368;18.406;2023-04-16T01:03:27;14.02;;;12.52;;
68315;SDS011;55508;54.368;18.406;2023-04-16T01:06:02;13.20;;;11.98;;
68315;SDS011;55508;54.368;18.406;2023-04-16T01:08:29;11.68;;;10.68;;
68315;SDS011;55508;54.368;18.406;2023-04-16T01:10:56;11.57;;;10.60;;
68315;SDS011;55508;54.368;18.406;2023-04-16T01:13:22;11.35;;;10.35;;
68315;SDS011;55508;54.368;18.406;2023-04-16T01:15:50;11.52;;;10.52;;
68315;SDS011;55508;54.368;18.406;2023-04-16T01:18:18;11.38;;;10.35;;
68315;SDS011;55508;54.368;18.406;2023-04-16T01:20:46;11.30;;;10.40;;
68315;SDS011;55508;54.368;18.406;2023-04-16T01:23:14;11.85;;;10.95;;
68315;SDS011;55508;54.368;18.406;2023-04-16T01:25:42;10.95;;;10.05;;
68315;SDS011;55508;54.368;18.406;2023-04-16T01:28:09;10.88;;;10.00;;
68315;SDS011;55508;54.368;18.406;2023-04-16T01:30:36;11.63;;;10.60;;
68315;SDS011;55508;54.368;18.406;2023-04-16T01:33:11;11.35;;;10.45;;
68315;SDS011;55508;54.368;18.406;2023-04-16T01:35:39;11.60;;;10.60;;
68315;SDS011;55508;54.368;18.406;2023-04-16T01:38:07;11.70;;;10.65;;
68315;SDS011;55508;54.368;18.406;2023-04-16T01:40:34;13.25;;;12.05;;
68315;SDS011;55508;54.368;18.406;2023-04-16T01:43:02;13.30;;;12.13;;
68315;SDS011;55508;54.368;18.406;2023-04-16T01:45:30;13.07;;;11.95;;
68315;SDS011;55508;54.368;18.406;2023-04-16T01:47:57;13.75;;;12.35;;
68315;SDS011;55508;54.368;18.406;2023-04-16T01:50:24;13.05;;;11.85;;
68315;SDS011;55508;54.368;18.406;2023-04-16T01:52:51;13.02;;;11.77;;
68315;SDS011;55508;54.368;18.406;2023-04-16T01:55:18;13.40;;;12.07;;
68315;SDS011;55508;54.368;18.406;2023-04-16T01:57:45;14.13;;;12.90;;
68315;SDS011;55508;54.368;18.406;2023-04-16T02:00:13;13.63;;;12.30;;
68315;SDS011;55508;54.368;18.406;2023-04-16T02:02:43;13.85;;;12.68;;
68315;SDS011;55508;54.368;18.406;2023-04-16T02:07:42;13.38;;;12.07;;
68315;SDS011;55508;54.368;18.406;2023-04-16T02:10:09;14.43;;;13.02;;
68315;SDS011;55508;54.368;18.406;2023-04-16T02:12:38;13.38;;;12.10;;
68315;SDS011;55508;54.368;18.406;2023-04-16T02:15:05;14.00;;;12.60;;
68315;SDS011;55508;54.368;18.406;2023-04-16T02:17:33;14.25;;;12.95;;
68315;SDS011;55508;54.368;18.406;2023-04-16T02:20:06;15.45;;;13.85;;
68315;SDS011;55508;54.368;18.406;2023-04-16T02:22:42;14.23;;;12.82;;
68315;SDS011;55508;54.368;18.406;2023-04-16T02:25:13;15.07;;;13.57;;
68315;SDS011;55508;54.368;18.406;2023-04-16T02:27:41;15.40;;;13.77;;
68315;SDS011;55508;54.368;18.406;2023-04-16T02:30:27;15.73;;;14.23;;
68315;SDS011;55508;54.368;18.406;2023-04-16T02:32:54;15.18;;;13.75;;
68315;SDS011;55508;54.368;18.406;2023-04-16T02:35:21;17.15;;;15.50;;
68315;SDS011;55508;54.368;18.406;2023-04-16T02:37:48;17.50;;;15.75;;
68315;SDS011;55508;54.368;18.406;2023-04-16T02:40:15;16.52;;;15.02;;
68315;SDS011;55508;54.368;18.406;2023-04-16T02:42:42;16.90;;;15.10;;
68315;SDS011;55508;54.368;18.406;2023-04-16T02:45:09;16.40;;;14.70;;
68315;SDS011;55508;54.368;18.406;2023-04-16T02:47:37;15.30;;;13.70;;
68315;SDS011;55508;54.368;18.406;2023-04-16T02:50:04;15.80;;;14.30;;
68315;SDS011;55508;54.368;18.406;2023-04-16T02:52:31;16.02;;;14.25;;
68315;SDS011;55508;54.368;18.406;2023-04-16T02:54:59;15.88;;;14.07;;
68315;SDS011;55508;54.368;18.406;2023-04-16T02:57:26;15.38;;;13.80;;
68315;SDS011;55508;54.368;18.406;2023-04-16T02:59:53;16.42;;;14.82;;
68315;SDS011;55508;54.368;18.406;2023-04-16T03:02:20;15.73;;;14.10;;
68315;SDS011;55508;54.368;18.406;2023-04-16T03:04:47;15.18;;;13.88;;
68315;SDS011;55508;54.368;18.406;2023-04-16T03:07:14;16.67;;;14.90;;
68315;SDS011;55508;54.368;18.406;2023-04-16T03:09:41;15.88;;;14.25;;
68315;SDS011;55508;54.368;18.406;2023-04-16T03:12:08;16.85;;;15.05;;
68315;SDS011;55508;54.368;18.406;2023-04-16T03:14:35;16.80;;;15.10;;
68315;SDS011;55508;54.368;18.406;2023-04-16T03:17:01;17.35;;;15.20;;
68315;SDS011;55508;54.368;18.406;2023-04-16T03:19:28;16.95;;;15.18;;
68315;SDS011;55508;54.368;18.406;2023-04-16T03:21:55;18.27;;;15.60;;
68315;SDS011;55508;54.368;18.406;2023-04-16T03:24:22;17.42;;;15.65;;
68315;SDS011;55508;54.368;18.406;2023-04-16T03:26:49;17.98;;;16.15;;
68315;SDS011;55508;54.368;18.406;2023-04-16T03:29:19;17.35;;;15.68;;
68315;SDS011;55508;54.368;18.406;2023-04-16T03:31:47;17.80;;;15.88;;
68315;SDS011;55508;54.368;18.406;2023-04-16T03:34:13;18.02;;;16.20;;
68315;SDS011;55508;54.368;18.406;2023-04-16T03:36:41;18.38;;;16.58;;
68315;SDS011;55508;54.368;18.406;2023-04-16T03:39:08;18.65;;;16.15;;
68315;SDS011;55508;54.368;18.406;2023-04-16T03:41:35;19.88;;;17.77;;
68315;SDS011;55508;54.368;18.406;2023-04-16T03:44:02;18.60;;;16.77;;
68315;SDS011;55508;54.368;18.406;2023-04-16T03:46:31;20.02;;;17.98;;
68315;SDS011;55508;54.368;18.406;2023-04-16T03:48:58;24.60;;;17.10;;
68315;SDS011;55508;54.368;18.406;2023-04-16T03:51:26;18.42;;;16.42;;
68315;SDS011;55508;54.368;18.406;2023-04-16T03:53:54;21.27;;;17.98;;
68315;SDS011;55508;54.368;18.406;2023-04-16T03:56:23;20.95;;;18.85;;
68315;SDS011;55508;54.368;18.406;2023-04-16T03:58:51;21.40;;;19.10;;
68315;SDS011;55508;54.368;18.406;2023-04-16T04:01:18;25.15;;;19.25;;
68315;SDS011;55508;54.368;18.406;2023-04-16T04:03:45;25.95;;;19.95;;
68315;SDS011;55508;54.368;18.406;2023-04-16T04:06:13;23.40;;;20.92;;
68315;SDS011;55508;54.368;18.406;2023-04-16T04:08:40;27.35;;;21.67;;
68315;SDS011;55508;54.368;18.406;2023-04-16T04:11:07;24.02;;;21.23;;
68315;SDS011;55508;54.368;18.406;2023-04-16T04:13:34;25.85;;;22.13;;
68315;SDS011;55508;54.368;18.406;2023-04-16T04:16:02;26.17;;;21.25;;
68315;SDS011;55508;54.368;18.406;2023-04-16T04:18:30;27.40;;;23.17;;
68315;SDS011;55508;54.368;18.406;2023-04-16T04:20:58;30.75;;;22.00;;
68315;SDS011;55508;54.368;18.406;2023-04-16T04:23:29;24.27;;;21.08;;
68315;SDS011;55508;54.368;18.406;2023-04-16T04:25:56;26.90;;;22.98;;
68315;SDS011;55508;54.368;18.406;2023-04-16T04:28:23;28.58;;;23.02;;
68315;SDS011;55508;54.368;18.406;2023-04-16T04:30:50;33.92;;;26.40;;
68315;SDS011;55508;54.368;18.406;2023-04-16T04:33:17;33.70;;;26.55;;
68315;SDS011;55508;54.368;18.406;2023-04-16T04:35:46;36.28;;;28.25;;
68315;SDS011;55508;54.368;18.406;2023-04-16T04:38:13;40.50;;;28.70;;
68315;SDS011;55508;54.368;18.406;2023-04-16T04:40:47;36.47;;;28.42;;
68315;SDS011;55508;54.368;18.406;2023-04-16T04:43:16;35.22;;;27.45;;
68315;SDS011;55508;54.368;18.406;2023-04-16T04:45:43;40.97;;;28.88;;
68315;SDS011;55508;54.368;18.406;2023-04-16T04:48:11;39.67;;;28.85;;
68315;SDS011;55508;54.368;18.406;2023-04-16T04:50:39;45.83;;;31.00;;
68315;SDS011;55508;54.368;18.406;2023-04-16T04:53:07;44.67;;;31.38;;
68315;SDS011;55508;54.368;18.406;2023-04-16T04:55:37;37.08;;;27.15;;
68315;SDS011;55508;54.368;18.406;2023-04-16T04:58:05;31.35;;;24.83;;
68315;SDS011;55508;54.368;18.406;2023-04-16T05:00:33;30.33;;;23.70;;
68315;SDS011;55508;54.368;18.406;2023-04-16T05:03:01;31.23;;;24.13;;
68315;SDS011;55508;54.368;18.406;2023-04-16T05:05:29;31.95;;;24.17;;
68315;SDS011;55508;54.368;18.406;2023-04-16T05:07:56;28.75;;;22.10;;
68315;SDS011;55508;54.368;18.406;2023-04-16T05:10:23;35.92;;;26.13;;
68315;SDS011;55508;54.368;18.406;2023-04-16T05:12:50;33.67;;;25.83;;
68315;SDS011;55508;54.368;18.406;2023-04-16T05:15:17;34.67;;;26.95;;
68315;SDS011;55508;54.368;18.406;2023-04-16T05:17:44;35.65;;;26.83;;
68315;SDS011;55508;54.368;18.406;2023-04-16T05:20:11;37.05;;;27.38;;
68315;SDS011;55508;54.368;18.406;2023-04-16T05:22:38;40.80;;;27.80;;
68315;SDS011;55508;54.368;18.406;2023-04-16T05:25:05;37.47;;;26.42;;
68315;SDS011;55508;54.368;18.406;2023-04-16T05:27:32;31.20;;;25.25;;
68315;SDS011;55508;54.368;18.406;2023-04-16T05:29:59;33.25;;;25.55;;
68315;SDS011;55508;54.368;18.406;2023-04-16T05:32:26;30.20;;;23.50;;
68315;SDS011;55508;54.368;18.406;2023-04-16T05:34:53;28.33;;;23.08;;
68315;SDS011;55508;54.368;18.406;2023-04-16T05:37:20;30.58;;;23.92;;
68315;SDS011;55508;54.368;18.406;2023-04-16T05:39:47;29.60;;;23.25;;
68315;SDS011;55508;54.368;18.406;2023-04-16T05:42:14;30.67;;;24.65;;
68315;SDS011;55508;54.368;18.406;2023-04-16T05:44:41;33.38;;;25.73;;
68315;SDS011;55508;54.368;18.406;2023-04-16T05:47:08;30.23;;;22.58;;
68315;SDS011;55508;54.368;18.406;2023-04-16T05:49:35;32.50;;;25.60;;
68315;SDS011;55508;54.368;18.406;2023-04-16T05:52:35;32.58;;;24.33;;
68315;SDS011;55508;54.368;18.406;2023-04-16T05:55:02;23.83;;;19.80;;
68315;SDS011;55508;54.368;18.406;2023-04-16T05:57:29;29.55;;;22.55;;
68315;SDS011;55508;54.368;18.406;2023-04-16T05:59:56;29.40;;;23.30;;
68315;SDS011;55508;54.368;18.406;2023-04-16T06:02:23;28.60;;;23.42;;
68315;SDS011;55508;54.368;18.406;2023-04-16T06:04:50;29.75;;;24.45;;
68315;SDS011;55508;54.368;18.406;2023-04-16T06:07:17;26.65;;;23.75;;
68315;SDS011;55508;54.368;18.406;2023-04-16T06:09:44;26.90;;;23.08;;
68315;SDS011;55508;54.368;18.406;2023-04-16T06:12:11;28.88;;;21.92;;
68315;SDS011;55508;54.368;18.406;2023-04-16T06:14:38;31.63;;;24.83;;
68315;SDS011;55508;54.368;18.406;2023-04-16T06:17:05;33.00;;;25.25;;
68315;SDS011;55508;54.368;18.406;2023-04-16T06:19:32;33.33;;;25.23;;
68315;SDS011;55508;54.368;18.406;2023-04-16T06:21:59;29.52;;;25.00;;
68315;SDS011;55508;54.368;18.406;2023-04-16T06:24:26;30.98;;;24.08;;
68315;SDS011;55508;54.368;18.406;2023-04-16T06:26:52;30.67;;;22.45;;
68315;SDS011;55508;54.368;18.406;2023-04-16T06:29:20;32.47;;;24.30;;
68315;SDS011;55508;54.368;18.406;2023-04-16T06:31:56;31.60;;;25.10;;
68315;SDS011;55508;54.368;18.406;2023-04-16T06:34:22;27.58;;;22.40;;
68315;SDS011;55508;54.368;18.406;2023-04-16T06:36:49;29.27;;;23.65;;
68315;SDS011;55508;54.368;18.406;2023-04-16T06:39:16;34.30;;;25.65;;
68315;SDS011;55508;54.368;18.406;2023-04-16T06:41:44;27.83;;;22.88;;
68315;SDS011;55508;54.368;18.406;2023-04-16T06:44:11;32.55;;;24.80;;
68315;SDS011;55508;54.368;18.406;2023-04-16T06:46:38;29.42;;;23.20;;
68315;SDS011;55508;54.368;18.406;2023-04-16T06:49:05;32.88;;;25.88;;
68315;SDS011;55508;54.368;18.406;2023-04-16T06:51:32;28.13;;;22.38;;
68315;SDS011;55508;54.368;18.406;2023-04-16T06:53:59;26.92;;;22.88;;
68315;SDS011;55508;54.368;18.406;2023-04-16T06:56:26;30.90;;;23.58;;
68315;SDS011;55508;54.368;18.406;2023-04-16T06:58:53;29.85;;;24.20;;
68315;SDS011;55508;54.368;18.406;2023-04-16T07:01:22;32.10;;;23.50;;
68315;SDS011;55508;54.368;18.406;2023-04-16T07:03:49;28.30;;;22.25;;
68315;SDS011;55508;54.368;18.406;2023-04-16T07:06:16;32.97;;;23.65;;
68315;SDS011;55508;54.368;18.406;2023-04-16T07:08:43;29.50;;;23.73;;
68315;SDS011;55508;54.368;18.406;2023-04-16T07:11:10;24.95;;;21.58;;
68315;SDS011;55508;54.368;18.406;2023-04-16T07:13:37;31.33;;;22.95;;
68315;SDS011;55508;54.368;18.406;2023-04-16T07:16:04;25.67;;;22.42;;
68315;SDS011;55508;54.368;18.406;2023-04-16T07:18:31;27.23;;;21.65;;
68315;SDS011;55508;54.368;18.406;2023-04-16T07:20:58;22.70;;;19.83;;
68315;SDS011;55508;54.368;18.406;2023-04-16T07:23:25;17.92;;;16.02;;
68315;SDS011;55508;54.368;18.406;2023-04-16T07:25:52;21.23;;;18.08;;
68315;SDS011;55508;54.368;18.406;2023-04-16T07:28:19;18.05;;;16.00;;
68315;SDS011;55508;54.368;18.406;2023-04-16T07:30:46;17.98;;;16.08;;
68315;SDS011;55508;54.368;18.406;2023-04-16T07:33:13;15.73;;;14.23;;
68315;SDS011;55508;54.368;18.406;2023-04-16T07:35:39;15.90;;;14.50;;
68315;SDS011;55508;54.368;18.406;2023-04-16T07:38:06;14.13;;;12.80;;
68315;SDS011;55508;54.368;18.406;2023-04-16T07:40:34;12.07;;;11.18;;
68315;SDS011;55508;54.368;18.406;2023-04-16T07:43:01;11.20;;;10.30;;
68315;SDS011;55508;54.368;18.406;2023-04-16T07:45:29;12.18;;;11.02;;
68315;SDS011;55508;54.368;18.406;2023-04-16T07:47:56;11.88;;;10.88;;
68315;SDS011;55508;54.368;18.406;2023-04-16T07:50:23;11.40;;;10.45;;
68315;SDS011;55508;54.368;18.406;2023-04-16T07:52:51;9.77;;;8.93;;
68315;SDS011;55508;54.368;18.406;2023-04-16T07:55:18;9.93;;;9.25;;
68315;SDS011;55508;54.368;18.406;2023-04-16T07:57:45;10.55;;;9.65;;
68315;SDS011;55508;54.368;18.406;2023-04-16T08:00:12;10.80;;;9.90;;
68315;SDS011;55508;54.368;18.406;2023-04-16T08:02:39;11.07;;;10.07;;
68315;SDS011;55508;54.368;18.406;2023-04-16T08:05:07;9.07;;;8.45;;
68315;SDS011;55508;54.368;18.406;2023-04-16T08:07:34;9.20;;;8.63;;
68315;SDS011;55508;54.368;18.406;2023-04-16T08:10:01;8.70;;;8.02;;
68315;SDS011;55508;54.368;18.406;2023-04-16T08:12:28;7.93;;;7.30;;
68315;SDS011;55508;54.368;18.406;2023-04-16T08:14:55;8.43;;;7.82;;
68315;SDS011;55508;54.368;18.406;2023-04-16T08:17:22;9.75;;;9.05;;
68315;SDS011;55508;54.368;18.406;2023-04-16T08:19:49;9.57;;;8.98;;
68315;SDS011;55508;54.368;18.406;2023-04-16T08:22:16;9.60;;;8.90;;
68315;SDS011;55508;54.368;18.406;2023-04-16T08:24:49;9.57;;;8.90;;
68315;SDS011;55508;54.368;18.406;2023-04-16T08:27:16;7.13;;;6.53;;
68315;SDS011;55508;54.368;18.406;2023-04-16T08:29:46;7.53;;;7.03;;
68315;SDS011;55508;54.368;18.406;2023-04-16T08:32:13;6.93;;;6.43;;
68315;SDS011;55508;54.368;18.406;2023-04-16T08:34:40;6.10;;;5.70;;
68315;SDS011;55508;54.368;18.406;2023-04-16T08:37:08;5.95;;;5.55;;
68315;SDS011;55508;54.368;18.406;2023-04-16T08:39:35;11.43;;;6.75;;
68315;SDS011;55508;54.368;18.406;2023-04-16T08:42:03;6.95;;;6.45;;
68315;SDS011;55508;54.368;18.406;2023-04-16T08:44:32;5.15;;;4.85;;
68315;SDS011;55508;54.368;18.406;2023-04-16T08:47:00;4.97;;;4.57;;
68315;SDS011;55508;54.368;18.406;2023-04-16T08:49:28;4.82;;;4.32;;
68315;SDS011;55508;54.368;18.406;2023-04-16T08:51:55;4.18;;;3.88;;
68315;SDS011;55508;54.368;18.406;2023-04-16T08:57:22;4.95;;;4.65;;
68315;SDS011;55508;54.368;18.406;2023-04-16T08:59:49;4.88;;;4.47;;
68315;SDS011;55508;54.368;18.406;2023-04-16T09:02:17;3.55;;;3.35;;
68315;SDS011;55508;54.368;18.406;2023-04-16T09:04:44;3.70;;;3.50;;
68315;SDS011;55508;54.368;18.406;2023-04-16T09:07:12;4.13;;;3.83;;
68315;SDS011;55508;54.368;18.406;2023-04-16T09:09:40;3.40;;;3.20;;
68315;SDS011;55508;54.368;18.406;2023-04-16T09:12:07;3.42;;;3.22;;
68315;SDS011;55508;54.368;18.406;2023-04-16T09:14:35;3.20;;;3.00;;
68315;SDS011;55508;54.368;18.406;2023-04-16T09:17:03;2.75;;;2.65;;
68315;SDS011;55508;54.368;18.406;2023-04-16T09:19:31;3.60;;;3.40;;
68315;SDS011;55508;54.368;18.406;2023-04-16T09:21:58;3.05;;;2.88;;
68315;SDS011;55508;54.368;18.406;2023-04-16T09:24:25;3.17;;;3.00;;
68315;SDS011;55508;54.368;18.406;2023-04-16T09:26:53;4.32;;;4.03;;
68315;SDS011;55508;54.368;18.406;2023-04-16T09:32:08;3.70;;;3.50;;
68315;SDS011;55508;54.368;18.406;2023-04-16T09:37:24;3.40;;;3.20;;
68315;SDS011;55508;54.368;18.406;2023-04-16T09:39:53;4.10;;;3.80;;
68315;SDS011;55508;54.368;18.406;2023-04-16T09:42:23;4.28;;;4.07;;
68315;SDS011;55508;54.368;18.406;2023-04-16T09:44:52;2.70;;;2.60;;
68315;SDS011;55508;54.368;18.406;2023-04-16T09:47:22;3.03;;;2.90;;
68315;SDS011;55508;54.368;18.406;2023-04-16T09:49:51;3.50;;;3.30;;
68315;SDS011;55508;54.368;18.406;2023-04-16T09:52:19;4.35;;;4.05;;
68315;SDS011;55508;54.368;18.406;2023-04-16T09:54:49;3.60;;;3.40;;
68315;SDS011;55508;54.368;18.406;2023-04-16T09:57:17;4.97;;;4.68;;
68315;SDS011;55508;54.368;18.406;2023-04-16T09:59:46;4.60;;;4.30;;
68315;SDS011;55508;54.368;18.406;2023-04-16T10:02:20;4.05;;;3.85;;
68315;SDS011;55508;54.368;18.406;2023-04-16T10:04:49;3.08;;;2.90;;
68315;SDS011;55508;54.368;18.406;2023-04-16T10:07:17;4.10;;;3.90;;
68315;SDS011;55508;54.368;18.406;2023-04-16T10:09:45;3.67;;;3.47;;
68315;SDS011;55508;54.368;18.406;2023-04-16T10:12:14;3.42;;;3.22;;
68315;SDS011;55508;54.368;18.406;2023-04-16T10:14:41;3.58;;;3.38;;
68315;SDS011;55508;54.368;18.406;2023-04-16T10:17:08;3.15;;;2.80;;
68315;SDS011;55508;54.368;18.406;2023-04-16T10:19:35;3.80;;;3.60;;
68315;SDS011;55508;54.368;18.406;2023-04-16T10:22:03;2.85;;;2.75;;
68315;SDS011;55508;54.368;18.406;2023-04-16T10:24:30;3.30;;;3.10;;
68315;SDS011;55508;54.368;18.406;2023-04-16T10:26:58;3.58;;;3.00;;
68315;SDS011;55508;54.368;18.406;2023-04-16T10:29:26;3.60;;;3.40;;
68315;SDS011;55508;54.368;18.406;2023-04-16T10:31:54;3.45;;;3.20;;
68315;SDS011;55508;54.368;18.406;2023-04-16T10:34:22;3.10;;;2.90;;
68315;SDS011;55508;54.368;18.406;2023-04-16T10:36:50;3.78;;;3.50;;
68315;SDS011;55508;54.368;18.406;2023-04-16T10:39:22;3.92;;;3.72;;
68315;SDS011;55508;54.368;18.406;2023-04-16T10:44:17;4.72;;;4.32;;
68315;SDS011;55508;54.368;18.406;2023-04-16T10:46:45;3.75;;;3.45;;
68315;SDS011;55508;54.368;18.406;2023-04-16T10:49:22;4.35;;;3.90;;
68315;SDS011;55508;54.368;18.406;2023-04-16T10:51:54;3.83;;;3.63;;
68315;SDS011;55508;54.368;18.406;2023-04-16T10:54:26;4.10;;;3.80;;
68315;SDS011;55508;54.368;18.406;2023-04-16T10:56:58;4.85;;;4.55;;
68315;SDS011;55508;54.368;18.406;2023-04-16T10:59:30;4.40;;;4.10;;
68315;SDS011;55508;54.368;18.406;2023-04-16T11:01:59;5.15;;;4.82;;
68315;SDS011;55508;54.368;18.406;2023-04-16T11:04:29;4.57;;;4.28;;
68315;SDS011;55508;54.368;18.406;2023-04-16T11:12:41;4.45;;;4.22;;
68315;SDS011;55508;54.368;18.406;2023-04-16T11:15:13;5.07;;;4.68;;
68315;SDS011;55508;54.368;18.406;2023-04-16T11:17:48;5.15;;;4.85;;
68315;SDS011;55508;54.368;18.406;2023-04-16T11:20:20;5.40;;;5.10;;
68315;SDS011;55508;54.368;18.406;2023-04-16T11:25:20;5.72;;;5.32;;
68315;SDS011;55508;54.368;18.406;2023-04-16T11:27:48;5.55;;;5.15;;
68315;SDS011;55508;54.368;18.406;2023-04-16T11:30:16;5.47;;;5.07;;
68315;SDS011;55508;54.368;18.406;2023-04-16T11:32:43;5.53;;;5.22;;
68315;SDS011;55508;54.368;18.406;2023-04-16T11:35:15;5.00;;;4.70;;
68315;SDS011;55508;54.368;18.406;2023-04-16T11:37:43;4.95;;;4.55;;
68315;SDS011;55508;54.368;18.406;2023-04-16T11:40:10;5.07;;;4.78;;
68315;SDS011;55508;54.368;18.406;2023-04-16T11:42:38;4.63;;;4.32;;
68315;SDS011;55508;54.368;18.406;2023-04-16T11:45:07;5.40;;;5.10;;
68315;SDS011;55508;54.368;18.406;2023-04-16T11:47:41;5.00;;;4.70;;
68315;SDS011;55508;54.368;18.406;2023-04-16T11:50:20;5.28;;;4.75;;
68315;SDS011;55508;54.368;18.406;2023-04-16T11:52:49;5.10;;;4.70;;
68315;SDS011;55508;54.368;18.406;2023-04-16T11:55:17;5.70;;;5.30;;
68315;SDS011;55508;54.368;18.406;2023-04-16T11:57:44;6.13;;;5.72;;
68315;SDS011;55508;54.368;18.406;2023-04-16T12:00:12;5.45;;;5.05;;
68315;SDS011;55508;54.368;18.406;2023-04-16T12:02:41;5.70;;;5.30;;
68315;SDS011;55508;54.368;18.406;2023-04-16T12:08:01;5.15;;;4.85;;
68315;SDS011;55508;54.368;18.406;2023-04-16T12:10:30;5.30;;;5.00;;
68315;SDS011;55508;54.368;18.406;2023-04-16T12:15:48;5.50;;;5.10;;
68315;SDS011;55508;54.368;18.406;2023-04-16T12:18:17;5.10;;;4.80;;
68315;SDS011;55508;54.368;18.406;2023-04-16T12:20:46;5.50;;;5.20;;
68315;SDS011;55508;54.368;18.406;2023-04-16T12:26:07;5.95;;;5.53;;
68315;SDS011;55508;54.368;18.406;2023-04-16T12:28:37;7.07;;;6.63;;
68315;SDS011;55508;54.368;18.406;2023-04-16T12:31:05;6.75;;;6.25;;
68315;SDS011;55508;54.368;18.406;2023-04-16T12:33:32;7.07;;;6.68;;
68315;SDS011;55508;54.368;18.406;2023-04-16T12:35:59;5.45;;;5.05;;
68315;SDS011;55508;54.368;18.406;2023-04-16T12:38:28;5.88;;;5.50;;
68315;SDS011;55508;54.368;18.406;2023-04-16T12:40:54;7.70;;;7.20;;
68315;SDS011;55508;54.368;18.406;2023-04-16T12:43:23;7.90;;;7.40;;
68315;SDS011;55508;54.368;18.406;2023-04-16T12:45:50;9.57;;;8.70;;
68315;SDS011;55508;54.368;18.406;2023-04-16T12:48:17;8.50;;;7.80;;
68315;SDS011;55508;54.368;18.406;2023-04-16T12:50:44;8.98;;;8.38;;
68315;SDS011;55508;54.368;18.406;2023-04-16T12:53:12;7.68;;;7.18;;
68315;SDS011;55508;54.368;18.406;2023-04-16T12:55:38;9.13;;;8.55;;
68315;SDS011;55508;54.368;18.406;2023-04-16T12:58:05;9.52;;;8.93;;
68315;SDS011;55508;54.368;18.406;2023-04-16T13:00:32;8.82;;;8.32;;
68315;SDS011;55508;54.368;18.406;2023-04-16T13:02:59;9.23;;;8.60;;
68315;SDS011;55508;54.368;18.406;2023-04-16T13:05:26;9.73;;;8.93;;
68315;SDS011;55508;54.368;18.406;2023-04-16T13:07:53;12.15;;;10.40;;
68315;SDS011;55508;54.368;18.406;2023-04-16T13:10:20;10.25;;;9.32;;
68315;SDS011;55508;54.368;18.406;2023-04-16T13:12:48;10.60;;;9.80;;
68315;SDS011;55508;54.368;18.406;2023-04-16T13:15:15;9.23;;;8.65;;
68315;SDS011;55508;54.368;18.406;2023-04-16T13:17:42;9.57;;;8.88;;
68315;SDS011;55508;54.368;18.406;2023-04-16T13:20:09;9.48;;;8.77;;
68315;SDS011;55508;54.368;18.406;2023-04-16T13:22:36;9.00;;;8.20;;
68315;SDS011;55508;54.368;18.406;2023-04-16T13:25:04;9.20;;;8.55;;
68315;SDS011;55508;54.368;18.406;2023-04-16T13:27:32;8.23;;;7.70;;
68315;SDS011;55508;54.368;18.406;2023-04-16T13:29:59;8.23;;;7.40;;
68315;SDS011;55508;54.368;18.406;2023-04-16T13:32:26;8.88;;;8.38;;
68315;SDS011;55508;54.368;18.406;2023-04-16T13:34:53;8.32;;;7.65;;
68315;SDS011;55508;54.368;18.406;2023-04-16T13:37:20;7.50;;;7.00;;
68315;SDS011;55508;54.368;18.406;2023-04-16T13:39:47;8.23;;;7.70;;
68315;SDS011;55508;54.368;18.406;2023-04-16T13:42:13;8.57;;;8.07;;
68315;SDS011;55508;54.368;18.406;2023-04-16T13:44:40;8.45;;;7.90;;
68315;SDS011;55508;54.368;18.406;2023-04-16T13:47:08;7.70;;;7.20;;
68315;SDS011;55508;54.368;18.406;2023-04-16T13:49:35;8.68;;;7.93;;
68315;SDS011;55508;54.368;18.406;2023-04-16T13:52:02;8.60;;;7.90;;
68315;SDS011;55508;54.368;18.406;2023-04-16T13:54:29;8.82;;;8.02;;
68315;SDS011;55508;54.368;18.406;2023-04-16T13:56:56;8.57;;;7.88;;
68315;SDS011;55508;54.368;18.406;2023-04-16T13:59:23;9.60;;;8.63;;
68315;SDS011;55508;54.368;18.406;2023-04-16T14:01:50;8.15;;;7.40;;
68315;SDS011;55508;54.368;18.406;2023-04-16T14:04:17;8.18;;;7.32;;
68315;SDS011;55508;54.368;18.406;2023-04-16T14:06:44;8.27;;;7.68;;
68315;SDS011;55508;54.368;18.406;2023-04-16T14:09:11;9.45;;;8.60;;
68315;SDS011;55508;54.368;18.406;2023-04-16T14:11:38;9.73;;;9.00;;
68315;SDS011;55508;54.368;18.406;2023-04-16T14:14:05;9.38;;;8.60;;
68315;SDS011;55508;54.368;18.406;2023-04-16T14:16:32;8.75;;;8.15;;
68315;SDS011;55508;54.368;18.406;2023-04-16T14:19:01;10.20;;;9.18;;
68315;SDS011;55508;54.368;18.406;2023-04-16T14:24:30;9.57;;;8.88;;
68315;SDS011;55508;54.368;18.406;2023-04-16T14:26:57;9.45;;;8.75;;
68315;SDS011;55508;54.368;18.406;2023-04-16T14:29:24;10.13;;;9.20;;
68315;SDS011;55508;54.368;18.406;2023-04-16T14:31:51;9.32;;;8.52;;
68315;SDS011;55508;54.368;18.406;2023-04-16T14:40:56;11.02;;;10.10;;
68315;SDS011;55508;54.368;18.406;2023-04-16T14:43:23;11.20;;;10.20;;
68315;SDS011;55508;54.368;18.406;2023-04-16T14:45:50;11.07;;;10.18;;
68315;SDS011;55508;54.368;18.406;2023-04-16T14:48:18;10.65;;;9.80;;
68315;SDS011;55508;54.368;18.406;2023-04-16T14:50:46;10.43;;;9.52;;
68315;SDS011;55508;54.368;18.406;2023-04-16T14:53:13;10.60;;;9.80;;
68315;SDS011;55508;54.368;18.406;2023-04-16T14:55:39;11.00;;;9.93;;
68315;SDS011;55508;54.368;18.406;2023-04-16T14:58:06;10.40;;;9.20;;
68315;SDS011;55508;54.368;18.406;2023-04-16T15:00:34;10.25;;;9.35;;
68315;SDS011;55508;54.368;18.406;2023-04-16T15:03:01;11.77;;;10.57;;